createdAt,value
2022-08-22T00:02:23.602Z,98917.94
2022-08-22T00:02:42.671Z,98748.72
2022-08-22T00:02:52.694Z,98821.44
2022-08-22T00:05:17.253Z,98809.97
2022-08-22T00:07:45.250Z,98975.53
2022-08-22T00:10:28.111Z,99007.31
2022-08-22T00:13:20.634Z,98909.22
2022-08-22T00:16:16.704Z,98876.59
2022-08-22T00:19:16.203Z,98974.25
2022-08-22T00:22:15.391Z,98830.72
2022-08-22T00:24:59.261Z,98860.19
2022-08-22T00:27:38.449Z,99019.53
2022-08-22T00:30:17.822Z,98900.63
2022-08-22T00:33:01.853Z,98899.09
2022-08-22T00:35:53.694Z,98920.28
2022-08-22T00:38:35.417Z,98836.22
2022-08-22T00:41:44.972Z,98804.09
2022-08-22T00:44:58.254Z,98995.66
2022-08-22T00:48:10.172Z,98824.66
2022-08-22T00:51:01.327Z,98872.03
2022-08-22T00:53:42.890Z,98840.31
2022-08-22T00:56:47.485Z,98958.34
2022-08-22T00:59:29.609Z,99030.94
2022-08-22T01:02:24.314Z,98859.47
2022-08-22T01:05:10.299Z,98784.22
2022-08-22T01:08:29.706Z,98870.19
2022-08-22T01:11:30.275Z,98951.69
2022-08-22T01:14:34.326Z,98934.84
2022-08-22T01:17:29.536Z,98906.91
2022-08-22T01:20:27.191Z,98981.13
2022-08-22T01:23:18.685Z,98809.28
2022-08-22T01:26:06.759Z,98898.19
2022-08-22T01:29:28.299Z,98794.56
2022-08-22T01:32:56.975Z,98749.44
2022-08-22T01:36:10.117Z,98846.84
2022-08-22T01:39:02.140Z,98860.25
2022-08-22T01:41:59.433Z,98835.25
2022-08-22T01:44:32.353Z,98860.59
2022-08-22T01:47:01.485Z,98802.31
2022-08-22T01:49:44.124Z,98822.50
2022-08-22T01:53:02.797Z,98992.78
2022-08-22T01:55:42.307Z,98838.47
2022-08-22T01:58:32.026Z,98806.56
2022-08-22T02:01:10.986Z,98782.19
2022-08-22T02:03:51.367Z,98914.13
2022-08-22T02:06:33.812Z,98911.25
2022-08-22T02:09:28.110Z,98741.78
2022-08-22T02:12:22.140Z,98966.78
2022-08-22T02:15:21.694Z,98764.28
2022-08-22T02:18:06.412Z,98962.56
2022-08-22T02:20:48.912Z,98798.53
2022-08-22T02:23:49.846Z,98958.31
2022-08-22T02:27:04.378Z,98917.44
2022-08-22T02:29:50.558Z,98885.16
2022-08-22T02:32:48.947Z,98925.56
2022-08-22T02:35:40.246Z,98950.03
2022-08-22T02:38:52.954Z,98921.09
2022-08-22T02:42:07.203Z,98790.53
2022-08-22T02:44:50.567Z,98814.25
2022-08-22T02:47:35.590Z,98896.88
2022-08-22T02:50:39.470Z,98754.47
2022-08-22T02:53:49.841Z,98935.38
2022-08-22T02:57:06.077Z,98867.00
2022-08-22T02:59:38.249Z,98822.84
2022-08-22T03:02:46.373Z,98926.53
2022-08-22T03:05:37.253Z,98802.03
2022-08-22T03:08:28.255Z,98771.41
2022-08-22T03:11:23.562Z,98811.59
2022-08-22T03:14:55.012Z,98948.03
2022-08-22T03:17:38.425Z,98880.38
2022-08-22T03:20:13.947Z,98763.09
2022-08-22T03:23:05.379Z,98934.41
2022-08-22T03:25:38.527Z,98874.78
2022-08-22T03:28:37.288Z,98881.28
2022-08-22T03:31:18.624Z,98814.28
2022-08-22T03:34:06.419Z,98893.94
2022-08-22T03:36:35.524Z,98959.09
2022-08-22T03:39:35.487Z,98805.88
2022-08-22T03:43:14.364Z,98958.75
2022-08-22T03:46:30.507Z,98882.25
2022-08-22T03:49:10.415Z,98763.69
2022-08-22T03:51:56.204Z,98849.13
2022-08-22T03:54:58.551Z,98922.00
2022-08-22T03:57:37.632Z,98786.13
2022-08-22T04:00:57.462Z,98732.59
2022-08-22T04:03:56.908Z,98824.81
2022-08-22T04:07:06.886Z,98804.00
2022-08-22T04:10:07.355Z,98996.19
2022-08-22T04:12:52.515Z,98922.78
2022-08-22T04:15:40.528Z,98740.63
2022-08-22T04:18:23.624Z,98816.34
2022-08-22T04:20:56.704Z,98886.06
2022-08-22T04:23:57.656Z,99012.50
2022-08-22T04:26:56.525Z,98916.47
2022-08-22T04:30:05.834Z,98717.97
2022-08-22T04:32:50.196Z,98813.72
2022-08-22T04:35:29.534Z,98792.25
2022-08-22T04:38:12.510Z,98765.66
2022-08-22T04:40:53.678Z,98843.72
2022-08-22T04:43:39.264Z,98881.75
2022-08-22T04:46:41.674Z,98737.50
2022-08-22T04:49:39.913Z,98931.06
2022-08-22T04:52:18.979Z,98933.97
2022-08-22T04:55:11.101Z,99037.34
2022-08-22T04:57:56.049Z,98854.34
2022-08-22T05:00:23.933Z,98944.72
2022-08-22T05:02:56.420Z,98882.72
2022-08-22T05:05:38.573Z,98829.47
2022-08-22T05:08:09.976Z,99071.78
2022-08-22T05:10:47.495Z,99094.97
2022-08-22T05:13:22.844Z,98998.88
2022-08-22T05:15:56.332Z,98980.84
2022-08-22T05:18:42.756Z,98891.44
2022-08-22T05:21:13.900Z,98930.69
2022-08-22T05:24:04.616Z,98909.44
2022-08-22T05:26:40.591Z,99054.69
2022-08-22T05:29:10.002Z,98969.78
2022-08-22T05:32:03.550Z,98932.25
2022-08-22T05:34:40.148Z,99000.22
2022-08-22T05:37:22.744Z,98981.00
2022-08-22T05:39:58.961Z,98963.00
2022-08-22T05:42:33.954Z,98933.38
2022-08-22T05:45:03.371Z,98886.16
2022-08-22T05:47:55.630Z,98840.63
2022-08-22T05:50:52.200Z,98979.69
2022-08-22T05:53:37.595Z,98993.31
2022-08-22T05:56:18.194Z,99033.47
2022-08-22T05:58:51.772Z,99005.84
2022-08-22T06:01:38.081Z,98984.63
2022-08-22T06:04:31.185Z,98968.19
2022-08-22T06:07:14.905Z,98846.28
2022-08-22T06:09:48.108Z,98884.66
2022-08-22T06:12:44.673Z,98851.91
2022-08-22T06:15:20.914Z,98860.75
2022-08-22T06:18:05.210Z,98902.88
2022-08-22T06:21:01.093Z,98933.91
2022-08-22T06:24:02.598Z,98889.63
2022-08-22T06:26:36.459Z,98885.00
2022-08-22T06:29:07.514Z,98885.47
2022-08-22T06:31:48.371Z,98896.53
2022-08-22T06:34:25.685Z,98946.19
2022-08-22T06:36:56.282Z,98951.50
2022-08-22T06:39:42.235Z,98938.50
2022-08-22T06:42:23.950Z,98946.47
2022-08-22T06:45:09.548Z,98879.84
2022-08-22T06:47:50.238Z,98907.13
2022-08-22T06:50:35.805Z,98886.81
2022-08-22T06:53:29.447Z,98915.09
2022-08-22T06:56:03.164Z,98842.53
2022-08-22T06:58:52.453Z,98951.47
2022-08-22T07:01:39.936Z,98908.69
2022-08-22T07:04:10.511Z,98930.13
2022-08-22T07:06:50.244Z,98901.81
2022-08-22T07:09:25.717Z,98886.97
2022-08-22T07:11:56.366Z,98937.88
2022-08-22T07:14:44.337Z,98963.63
2022-08-22T07:17:28.701Z,98954.88
2022-08-22T07:20:24.073Z,98961.47
2022-08-22T07:23:08.880Z,98914.28
2022-08-22T07:25:55.317Z,98924.09
2022-08-22T07:28:51.241Z,98940.19
2022-08-22T07:31:54.142Z,98938.56
2022-08-22T07:34:38.055Z,98966.28
2022-08-22T07:37:21.788Z,98957.53
2022-08-22T07:40:00.726Z,98941.06
2022-08-22T07:42:49.510Z,98919.66
2022-08-22T07:45:32.021Z,98922.66
2022-08-22T07:48:26.573Z,98967.13
2022-08-22T07:51:01.047Z,98987.00
2022-08-22T07:54:00.989Z,98918.13
2022-08-22T07:56:38.447Z,98923.16
2022-08-22T07:59:20.083Z,98919.09
2022-08-22T08:01:53.528Z,98982.78
2022-08-22T08:04:39.472Z,98920.94
2022-08-22T08:07:14.479Z,98944.03
2022-08-22T08:09:49.911Z,98908.28
2022-08-22T08:12:22.149Z,98948.91
2022-08-22T08:14:53.355Z,98939.50
2022-08-22T08:17:32.190Z,98974.06
2022-08-22T08:20:08.854Z,98924.25
2022-08-22T08:22:38.976Z,98960.00
2022-08-22T08:25:08.198Z,98981.84
2022-08-22T08:27:57.346Z,98978.31
2022-08-22T08:30:40.841Z,98983.25
2022-08-22T08:33:26.182Z,98946.72
2022-08-22T08:36:25.521Z,98935.06
2022-08-22T08:39:28.572Z,98984.28
2022-08-22T08:43:11.080Z,98951.59
2022-08-22T08:46:14.458Z,98989.63
2022-08-22T08:49:06.497Z,98992.03
2022-08-22T08:52:18.355Z,98973.66
2022-08-22T08:55:42.755Z,98983.75
2022-08-22T08:59:01.941Z,98985.47
2022-08-22T09:01:56.593Z,98970.31
2022-08-22T09:05:20.921Z,98961.09
2022-08-22T09:08:27.623Z,98994.69
2022-08-22T09:11:31.213Z,99039.81
2022-08-22T09:14:53.217Z,98979.09
2022-08-22T09:18:08.469Z,98966.66
2022-08-22T09:21:30.436Z,98978.69
2022-08-22T09:24:40.246Z,99013.91
2022-08-22T09:27:36.657Z,98982.25
2022-08-22T09:30:13.067Z,99011.28
2022-08-22T09:33:08.885Z,99013.69
2022-08-22T09:36:03.148Z,98971.59
2022-08-22T09:38:38.128Z,99014.00
2022-08-22T09:41:54.339Z,98998.41
2022-08-22T09:44:46.564Z,98966.81
2022-08-22T09:47:39.272Z,99015.88
2022-08-22T09:50:30.800Z,98993.16
2022-08-22T09:53:34.518Z,99000.25
2022-08-22T09:56:26.153Z,99032.44
2022-08-22T09:59:06.794Z,99014.38
2022-08-22T10:02:14.276Z,98993.31
2022-08-22T10:05:05.886Z,99002.63
2022-08-22T10:08:12.919Z,98994.13
2022-08-22T10:11:11.773Z,99020.06
2022-08-22T10:14:02.629Z,99022.72
2022-08-22T10:17:14.814Z,99041.94
2022-08-22T10:20:02.071Z,99018.63
2022-08-22T10:22:49.422Z,99011.00
2022-08-22T10:25:16.351Z,99008.66
2022-08-22T10:28:22.156Z,99005.72
2022-08-22T10:31:08.026Z,98965.00
2022-08-22T10:33:59.482Z,98958.78
2022-08-22T10:37:02.007Z,99049.25
2022-08-22T10:40:02.528Z,98998.66
2022-08-22T10:43:13.434Z,99001.19
2022-08-22T10:45:46.338Z,99007.44
2022-08-22T10:48:35.139Z,98962.97
2022-08-22T10:51:24.846Z,98981.06
2022-08-22T10:54:26.462Z,99053.34
2022-08-22T10:57:12.210Z,98981.16
2022-08-22T10:59:56.663Z,99028.44
2022-08-22T11:02:53.075Z,99044.56
2022-08-22T11:05:37.837Z,99045.03
2022-08-22T11:08:25.495Z,98955.34
2022-08-22T11:11:43.837Z,98961.78
2022-08-22T11:14:24.742Z,98965.56
2022-08-22T11:17:27.515Z,98999.97
2022-08-22T11:20:32.096Z,98984.25
2022-08-22T11:23:34.025Z,98910.34
2022-08-22T11:26:35.845Z,98954.31
2022-08-22T11:29:26.459Z,98909.78
2022-08-22T11:32:30.783Z,98966.03
2022-08-22T11:35:14.231Z,98888.72
2022-08-22T11:38:32.583Z,98966.13
2022-08-22T11:41:52.481Z,98913.78
2022-08-22T11:44:50.970Z,98925.13
2022-08-22T11:47:28.054Z,98987.91
2022-08-22T11:50:19.248Z,99015.09
2022-08-22T11:53:07.850Z,98975.66
2022-08-22T11:56:21.339Z,98981.69
2022-08-22T11:59:22.517Z,99014.88
2022-08-22T12:01:59.789Z,99023.31
2022-08-22T12:04:43.976Z,98939.59
2022-08-22T12:07:18.598Z,98976.00
2022-08-22T12:09:50.624Z,98971.97
2022-08-22T12:12:42.187Z,98959.56
2022-08-22T12:15:53.752Z,99005.59
2022-08-22T12:18:26.853Z,99003.00
2022-08-22T12:21:21.540Z,98977.97
2022-08-22T12:23:55.681Z,98954.47
2022-08-22T12:27:10.040Z,98919.56
2022-08-22T12:31:00.816Z,98878.25
2022-08-22T12:34:02.180Z,98918.56
2022-08-22T12:37:03.023Z,98914.28
2022-08-22T12:40:17.596Z,98859.00
2022-08-22T12:43:10.251Z,98968.75
2022-08-22T12:46:12.838Z,99013.59
2022-08-22T12:49:21.263Z,98982.09
2022-08-22T12:52:12.912Z,98911.31
2022-08-22T12:54:58.343Z,98852.94
2022-08-22T12:58:01.001Z,98969.97
2022-08-22T13:00:45.178Z,98877.28
2022-08-22T13:03:34.595Z,98899.72
2022-08-22T13:06:42.611Z,98928.41
2022-08-22T13:09:30.867Z,98937.56
2022-08-22T13:12:25.492Z,98966.03
2022-08-22T13:15:11.990Z,98852.50
2022-08-22T13:17:44.727Z,98946.66
2022-08-22T13:20:32.662Z,98834.69
2022-08-22T13:23:12.420Z,98887.06
2022-08-22T13:26:16.460Z,98879.84
2022-08-22T13:29:26.755Z,98903.06
2022-08-22T13:32:03.598Z,98806.56
2022-08-22T13:34:45.666Z,98805.50
2022-08-22T13:37:24.781Z,98835.13
2022-08-22T13:40:00.985Z,98784.34
2022-08-22T13:42:33.701Z,98921.31
2022-08-22T13:45:27.017Z,98762.94
2022-08-22T13:48:09.310Z,98777.44
2022-08-22T13:51:14.471Z,98895.56
2022-08-22T13:54:01.969Z,98898.66
2022-08-22T13:56:47.839Z,98857.88
2022-08-22T14:00:07.984Z,98814.50
2022-08-22T14:02:58.843Z,98737.97
2022-08-22T14:05:54.753Z,98883.63
2022-08-22T14:08:41.332Z,98738.25
2022-08-22T14:11:55.192Z,98854.31
2022-08-22T14:14:34.447Z,98877.97
2022-08-22T14:17:02.288Z,98887.13
2022-08-22T14:19:53.123Z,98884.41
2022-08-22T14:22:31.799Z,98820.59
2022-08-22T14:25:24.724Z,98745.38
2022-08-22T14:28:06.442Z,98870.34
2022-08-22T14:31:00.967Z,98810.13
2022-08-22T14:33:40.872Z,98863.31
2022-08-22T14:36:17.142Z,98846.97
2022-08-22T14:38:57.869Z,98883.22
2022-08-22T14:41:52.501Z,98871.34
2022-08-22T14:44:36.239Z,98816.34
2022-08-22T14:47:32.362Z,98845.88
2022-08-22T14:50:45.734Z,98856.97
2022-08-22T14:53:23.651Z,98792.91
2022-08-22T14:56:13.257Z,98874.72
2022-08-22T14:59:07.152Z,98857.63
2022-08-22T15:02:07.545Z,98776.13
2022-08-22T15:04:49.935Z,98816.91
2022-08-22T15:07:32.992Z,98753.38
2022-08-22T15:10:25.253Z,98828.69
2022-08-22T15:12:59.145Z,98771.47
2022-08-22T15:15:54.172Z,98754.00
2022-08-22T15:18:28.064Z,98805.97
2022-08-22T15:21:21.010Z,98766.94
2022-08-22T15:23:55.931Z,98755.47
2022-08-22T15:26:36.621Z,98847.28
2022-08-22T15:29:23.597Z,98750.63
2022-08-22T15:31:59.755Z,98745.78
2022-08-22T15:34:32.668Z,98809.88
2022-08-22T15:37:17.943Z,98716.84
2022-08-22T15:40:11.872Z,98760.34
2022-08-22T15:42:50.256Z,98773.16
2022-08-22T15:45:30.649Z,98786.03
2022-08-22T15:48:04.819Z,98699.66
2022-08-22T15:50:41.835Z,98690.97
2022-08-22T15:53:14.160Z,98674.91
2022-08-22T15:56:13.223Z,98660.06
2022-08-22T15:58:50.061Z,98701.19
2022-08-22T16:01:25.055Z,98786.38
2022-08-22T16:04:12.810Z,98801.94
2022-08-22T16:06:53.948Z,98760.25
2022-08-22T16:09:53.096Z,98743.47
2022-08-22T16:12:44.212Z,98749.56
2022-08-22T16:15:54.159Z,98734.44
2022-08-22T16:18:39.647Z,98750.84
2022-08-22T16:21:14.609Z,98735.28
2022-08-22T16:24:00.908Z,98760.19
2022-08-22T16:26:30.925Z,98745.31
2022-08-22T16:29:07.246Z,98735.56
2022-08-22T16:31:38.901Z,98724.88
2022-08-22T16:34:18.109Z,98673.22
2022-08-22T16:37:03.428Z,98715.47
2022-08-22T16:39:49.771Z,98714.03
2022-08-22T16:42:22.898Z,98763.84
2022-08-22T16:45:05.118Z,98670.09
2022-08-22T16:47:32.874Z,98743.78
2022-08-22T16:50:27.923Z,98735.00
2022-08-22T16:53:08.466Z,98677.53
2022-08-22T16:55:36.052Z,98686.34
2022-08-22T16:58:17.500Z,98747.06
2022-08-22T17:01:08.884Z,98740.03
2022-08-22T17:03:54.116Z,98685.47
2022-08-22T17:07:03.323Z,98734.59
2022-08-22T17:10:14.286Z,98724.19
2022-08-22T17:13:12.908Z,98689.94
2022-08-22T17:16:17.058Z,98740.69
2022-08-22T17:19:25.839Z,98742.78
2022-08-22T17:22:11.105Z,98687.72
2022-08-22T17:25:21.735Z,98741.31
2022-08-22T17:28:34.287Z,98695.94
2022-08-22T17:31:43.810Z,98731.81
2022-08-22T17:34:35.204Z,98715.41
2022-08-22T17:37:23.412Z,98713.03
2022-08-22T17:40:22.774Z,98678.25
2022-08-22T17:43:27.100Z,98741.22
2022-08-22T17:46:29.774Z,98703.31
2022-08-22T17:49:11.297Z,98731.97
2022-08-22T17:52:13.554Z,98695.34
2022-08-22T17:54:50.620Z,98717.50
2022-08-22T17:57:48.987Z,98670.13
2022-08-22T18:00:37.121Z,98674.28
2022-08-22T18:03:29.284Z,98694.13
2022-08-22T18:06:19.911Z,98672.44
2022-08-22T18:09:15.430Z,98723.44
2022-08-22T18:12:02.067Z,98719.81
2022-08-22T18:14:47.596Z,98722.34
2022-08-22T18:17:33.651Z,98696.44
2022-08-22T18:20:17.361Z,98694.25
2022-08-22T18:23:21.549Z,98680.31
2022-08-22T18:26:44.128Z,98713.63
2022-08-22T18:29:18.016Z,98762.19
2022-08-22T18:32:19.154Z,98712.38
2022-08-22T18:35:05.951Z,98707.66
2022-08-22T18:37:34.864Z,98737.91
2022-08-22T18:40:50.325Z,98710.53
2022-08-22T18:43:48.336Z,98750.63
2022-08-22T18:46:38.566Z,98790.78
2022-08-22T18:49:31.739Z,98766.78
2022-08-22T18:52:19.865Z,98775.94
2022-08-22T18:55:27.827Z,98728.16
2022-08-22T18:58:24.793Z,98709.38
2022-08-22T19:01:31.087Z,98779.38
2022-08-22T19:04:40.279Z,98809.91
2022-08-22T19:07:57.187Z,98757.09
2022-08-22T19:10:40.768Z,98777.81
2022-08-22T19:13:34.552Z,98783.38
2022-08-22T19:16:26.681Z,98809.72
2022-08-22T19:19:02.693Z,98778.41
2022-08-22T19:21:54.459Z,98794.56
2022-08-22T19:24:27.430Z,98818.91
2022-08-22T19:27:07.421Z,98768.28
2022-08-22T19:29:34.268Z,98795.03
2022-08-22T19:32:05.929Z,98724.50
2022-08-22T19:34:39.821Z,98771.69
2022-08-22T19:37:33.360Z,98796.22
2022-08-22T19:40:10.569Z,98791.53
2022-08-22T19:42:43.201Z,98728.81
2022-08-22T19:45:28.714Z,98693.88
2022-08-22T19:48:13.968Z,98723.75
2022-08-22T19:50:43.217Z,98807.94
2022-08-22T19:53:46.735Z,98800.97
2022-08-22T19:57:01.013Z,98699.97
2022-08-22T20:00:00.015Z,98659.72
2022-08-22T20:02:39.180Z,98768.91
2022-08-22T20:05:35.959Z,98746.47
2022-08-22T20:08:27.775Z,98713.38
2022-08-22T20:11:52.767Z,98737.03
2022-08-22T20:14:31.139Z,98789.38
2022-08-22T20:17:10.533Z,98828.59
2022-08-22T20:22:45.359Z,98786.66
2022-08-22T20:25:49.327Z,98765.56
2022-08-22T20:28:48.988Z,98725.00
2022-08-22T20:31:27.497Z,98728.56
2022-08-22T20:34:21.664Z,98665.06
2022-08-22T20:36:59.748Z,98742.84
2022-08-22T20:39:58.508Z,98801.97
2022-08-22T20:42:30.594Z,98732.09
2022-08-22T20:44:59.838Z,98854.09
2022-08-22T20:47:32.309Z,98823.25
2022-08-22T20:50:12.189Z,98769.44
2022-08-22T20:52:51.784Z,98768.06
2022-08-22T20:55:27.929Z,98779.16
2022-08-22T20:58:18.378Z,98802.59
2022-08-22T21:00:48.883Z,98768.72
2022-08-22T21:03:44.536Z,98853.56
2022-08-22T21:06:28.158Z,98823.19
2022-08-22T21:09:40.276Z,98840.34
2022-08-22T21:12:09.420Z,98667.22
2022-08-22T21:14:46.190Z,98769.84
2022-08-22T21:17:27.465Z,98827.66
2022-08-22T21:20:14.765Z,98825.38
2022-08-22T21:22:42.223Z,98797.91
2022-08-22T21:25:09.703Z,98839.28
2022-08-22T21:27:37.253Z,98785.50
2022-08-22T21:30:09.402Z,98714.63
2022-08-22T21:32:42.863Z,98716.19
2022-08-22T21:35:32.102Z,98859.06
2022-08-22T21:38:01.485Z,98839.25
2022-08-22T21:40:36.954Z,98887.16
2022-08-22T21:43:14.009Z,98816.00
2022-08-22T21:45:44.405Z,98890.25
2022-08-22T21:48:40.058Z,98796.97
2022-08-22T21:51:36.493Z,98868.59
2022-08-22T21:54:25.624Z,98865.03
2022-08-22T21:57:00.263Z,98880.00
2022-08-22T21:59:51.168Z,98732.09
2022-08-22T22:02:42.137Z,98725.84
2022-08-22T22:05:17.743Z,98854.03
2022-08-22T22:07:47.547Z,98870.16
2022-08-22T22:10:19.360Z,98846.88
2022-08-22T22:12:49.419Z,98812.16
2022-08-22T22:15:22.071Z,98836.38
2022-08-22T22:17:49.888Z,98751.97
2022-08-22T22:20:19.778Z,98903.47
2022-08-22T22:22:47.540Z,98942.75
2022-08-22T22:25:39.151Z,98835.97
2022-08-22T22:28:15.953Z,98832.22
2022-08-22T22:30:45.114Z,98838.03
2022-08-22T22:33:12.444Z,98895.00
2022-08-22T22:35:40.743Z,98882.44
2022-08-22T22:38:08.332Z,98825.22
2022-08-22T22:40:36.146Z,98881.63
2022-08-22T22:43:03.862Z,98881.34
2022-08-22T22:45:31.151Z,98937.56
2022-08-22T22:47:58.515Z,98943.31
2022-08-22T22:50:25.836Z,98889.16
2022-08-22T22:52:54.165Z,98934.56
2022-08-22T22:55:24.714Z,98895.50
2022-08-22T22:57:59.231Z,98893.16
2022-08-22T23:00:31.039Z,98818.59
2022-08-22T23:03:00.500Z,98897.56
2022-08-22T23:05:32.148Z,98971.38
2022-08-22T23:08:00.012Z,98942.63
2022-08-22T23:10:30.099Z,98872.13
2022-08-22T23:12:57.882Z,98899.41
2022-08-22T23:15:25.592Z,98876.47
2022-08-22T23:17:52.689Z,98940.69
2022-08-22T23:20:20.283Z,98945.16
2022-08-22T23:22:47.840Z,98861.41
2022-08-22T23:25:15.694Z,98922.47
2022-08-22T23:27:43.467Z,98899.59
2022-08-22T23:30:11.763Z,98914.03
2022-08-22T23:32:39.335Z,98936.50
2022-08-22T23:35:07.575Z,98956.84
2022-08-22T23:37:35.446Z,98931.38
2022-08-22T23:40:07.376Z,98903.91
2022-08-22T23:42:34.693Z,98945.84
2022-08-22T23:45:01.728Z,98941.97
2022-08-22T23:47:28.983Z,98928.13
2022-08-22T23:49:56.103Z,98940.06
2022-08-22T23:52:23.196Z,98939.72
2022-08-22T23:54:51.516Z,98858.63
2022-08-22T23:57:26.264Z,98889.38
2022-08-22T23:59:57.468Z,98901.41
